Terminal Aerodrome Forecast
Issued by NWS

Home | Current Version | Previous Version | Graphics & Text | Print | Product List | Glossary On
Versions: 1 2 3 4 5 6 7 8 9 10 11 12 13 14 15 16 17
000
FTUS43 KGRB 260340 AAA
TAFAUW
TAF AMD
KAUW 260340Z 2604/2624 32006KT P6SM BKN030 OVC040
      TEMPO 2605/2609 SCT030
     FM260900 31004KT P6SM SCT035
     FM261400 32007KT P6SM SCT030
      TEMPO 2614/2617 BKN030
     FM262000 33006KT P6SM SCT040=

USA.gov is the U.S. government's official web portal to all federal, state and local government web resources and services.